Flight Track Log - Related Links

Times and Time Zones

All times are in EDT time to prevent confusion due to time zone crossing. See the EGF4039 flight status page for this flight to view local times or setup timezone preferences in your user account.

Time Position Orientation Groundspeed Altitude Reporting Facility
EDT Latitude Longitude Course Direction KTS MPH feet Rate Location/Type
Sun 05:07:00 PM 42.5406 -92.2094 97° East 239 275 6,300  Level Chicago Center
Sun 05:08:02 PM 42.5322 -92.1042 96° East 263 303 8,800 2,613 Climbing Chicago Center
Sun 05:09:00 PM 42.4901 -91.7570 97° East  Level FlightAware Approximate
Sun 05:09:04 PM 42.5200 -91.9678 97° East 288 331 11,700  Level Chicago Center
Sun 05:10:00 PM 42.4828 -91.6278 97° East  Level FlightAware Approximate
Sun 05:10:06 PM 42.5064 -91.8453 99° East 320 368 13,700  Level Chicago Center
Sun 05:11:00 PM 42.4712 -91.5061 97° East  Level FlightAware Approximate
Sun 05:11:09 PM 42.4967 -91.7150 96° East 350 403 15,400  Level Chicago Center
Sun 05:12:00 PM 42.4596 -91.3845 97° East  Level FlightAware Approximate
Sun 05:12:10 PM 42.4847 -91.5783 97° East 370 426 16,900  Level Chicago Center
Sun 05:13:12 PM 42.4786 -91.4053 93° East 393 452 18,800 1,694 Climbing Chicago Center
Sun 05:14:14 PM 42.4867 -91.2597 86° East 393 452 20,400 1,536 Climbing Chicago Center
Sun 05:15:17 PM 42.4933 -91.1075 87° East 407 468 22,000 1,248 Climbing Chicago Center
Sun 05:16:19 PM 42.4997 -90.9494 87° East 423 487 23,000 484 Climbing Chicago Center
Sun 05:17:21 PM 42.5067 -90.7775 87° East 457 526 23,000  Level Chicago Center
Sun 05:18:23 PM 42.5156 -90.5650 87° East 473 544 23,000  Level Chicago Center
Sun 05:19:25 PM 42.5219 -90.3956 87° East 453 521 23,000  Level Chicago Center
Sun 05:20:27 PM 42.5247 -90.2506 88° East 393 452 23,000 -48 Level Chicago Center
Sun 05:21:29 PM 42.5294 -90.1006 88° East 399 459 22,900 -726 Descending Chicago Center
Sun 05:22:31 PM 42.5356 -89.9250 87° East 391 450 21,500 -1,210 Descending Chicago Center
Sun 05:23:33 PM 42.5386 -89.7922 88° East 385 443 20,400 -1,210 Descending Chicago Center
Sun 05:24:35 PM 42.5433 -89.6542 87° East 372 428 19,000 -1,452 Descending Chicago Center
Sun 05:25:37 PM 42.5472 -89.4981 88° East 357 411 17,400 -1,452 Descending Chicago Center
Sun 05:26:39 PM 42.5517 -89.3683 87° East 348 400 16,000 -1,258 Descending Chicago Center
Sun 05:27:41 PM 42.5550 -89.2411 88° East 341 392 14,800 -968 Descending Chicago Center
Sun 05:28:43 PM 42.5575 -89.1133 88° East 339 390 14,000 -581 Descending Chicago Center
Sun 05:29:45 PM 42.5272 -88.9983 110° East 328 377 13,600 -871 Descending Chicago Center
Sun 05:30:47 PM 42.4850 -88.8603 112° Southeast 339 390 12,200 -1,306 Descending Chicago Center
Sun 05:31:49 PM 42.4514 -88.7489 112° Southeast 324 373 10,900 -1,200 Descending Chicago Center
Sun 05:32:52 PM 42.4178 -88.6386 112° Southeast 319 367 9,700 -912 Descending Chicago Center
Sun 05:33:54 PM 42.3836 -88.5308 113° Southeast 313 360 9,000 -339 Descending Chicago Center
Sun 05:34:56 PM 42.3147 -88.4722 148° Southeast 307 353 9,000 -435 Level Chicago Center
Sun 05:35:58 PM 42.2356 -88.4594 173° South 293 337 8,100 -484 Descending Chicago Center
Sun 05:37:00 PM 42.1422 -88.4425 172° South 284 327 8,000 -581 Descending Chicago Center
Sun 05:38:02 PM 42.0644 -88.4300 173° South 284 327 6,900 -1,306 Descending Chicago Center
Sun 05:39:04 PM 41.9903 -88.4119 170° South 276 318 5,300 -919 Descending Chicago Center
Sun 05:40:06 PM 41.9628 -88.3178 111° Southeast 273 314 5,000 -194 Descending Chicago Center
Sun 05:41:08 PM 41.9669 -88.2231 87° East 258 297 4,900 -97 Descending Chicago Center

Login

Don't have an account? Register now (free) for customized features, flight alerts, and more!